createdAt,value
2022-08-29T00:00:02.248Z,2.67
2022-08-29T00:03:08.948Z,2.65
2022-08-29T00:06:11.386Z,2.58
2022-08-29T00:09:13.683Z,2.55
2022-08-29T00:12:16.072Z,3.17
2022-08-29T00:15:19.751Z,2.70
2022-08-29T00:18:21.974Z,2.83
2022-08-29T00:21:24.488Z,2.72
2022-08-29T00:24:27.476Z,2.65
2022-08-29T00:27:29.775Z,2.45
2022-08-29T00:30:32.628Z,2.83
2022-08-29T00:33:34.827Z,2.53
2022-08-29T00:36:40.526Z,3.00
2022-08-29T00:39:51.117Z,2.80
2022-08-29T00:42:53.661Z,2.70
2022-08-29T00:45:55.871Z,3.17
2022-08-29T00:49:03.090Z,2.87
2022-08-29T00:52:12.204Z,3.03
2022-08-29T00:55:23.212Z,2.87
2022-08-29T00:58:32.580Z,3.25
2022-08-29T01:01:35.225Z,2.60
2022-08-29T01:04:39.409Z,2.95
2022-08-29T01:07:42.766Z,2.72
2022-08-29T01:11:04.184Z,3.15
2022-08-29T01:14:06.607Z,2.72
2022-08-29T01:17:09.607Z,2.78
2022-08-29T01:20:20.931Z,2.80
2022-08-29T01:23:40.529Z,2.90
2022-08-29T01:26:45.015Z,3.10
2022-08-29T01:29:47.609Z,2.92
2022-08-29T01:32:49.808Z,2.75
2022-08-29T01:35:52.513Z,3.42
2022-08-29T01:38:54.735Z,3.25
2022-08-29T01:41:58.103Z,3.00
2022-08-29T01:45:00.884Z,2.97
2022-08-29T01:48:05.268Z,3.17
2022-08-29T01:51:11.178Z,3.08
2022-08-29T01:54:14.438Z,2.75
2022-08-29T01:57:17.370Z,3.10
2022-08-29T02:00:19.702Z,3.30
2022-08-29T02:03:22.296Z,3.03
2022-08-29T02:06:25.572Z,3.28
2022-08-29T02:09:28.605Z,3.33
2022-08-29T02:12:31.641Z,3.30
2022-08-29T02:15:34.022Z,3.25
2022-08-29T02:18:36.354Z,3.50
2022-08-29T02:21:38.613Z,3.17
2022-08-29T02:24:42.143Z,3.20
2022-08-29T02:27:45.254Z,3.50
2022-08-29T02:30:52.159Z,3.83
2022-08-29T02:33:59.106Z,3.58
2022-08-29T02:37:02.357Z,3.12
2022-08-29T02:40:05.291Z,3.78
2022-08-29T02:43:08.165Z,3.28
2022-08-29T02:46:15.234Z,3.40
2022-08-29T02:49:17.618Z,3.15
2022-08-29T02:52:20.632Z,3.50
2022-08-29T02:55:24.134Z,3.37
2022-08-29T02:58:26.814Z,3.35
2022-08-29T03:01:31.273Z,3.72
2022-08-29T03:04:34.470Z,4.25
2022-08-29T03:07:36.837Z,3.03
2022-08-29T03:10:39.170Z,3.45
2022-08-29T03:13:41.743Z,3.45
2022-08-29T03:16:43.971Z,3.12
2022-08-29T03:19:46.195Z,3.20
2022-08-29T03:22:49.228Z,3.45
2022-08-29T03:25:51.547Z,3.60
2022-08-29T03:28:54.241Z,3.20
2022-08-29T03:31:59.808Z,3.30
2022-08-29T03:35:02.085Z,3.40
2022-08-29T03:38:04.358Z,3.30
2022-08-29T03:41:07.443Z,3.70
2022-08-29T03:44:09.931Z,3.60
2022-08-29T03:47:12.129Z,3.28
2022-08-29T03:50:15.985Z,3.80
2022-08-29T03:53:18.708Z,3.58
2022-08-29T03:56:22.287Z,3.10
2022-08-29T03:59:25.062Z,3.83
2022-08-29T04:02:27.651Z,3.60
2022-08-29T04:05:30.224Z,3.45
2022-08-29T04:08:32.464Z,3.62
2022-08-29T04:11:34.672Z,3.58
2022-08-29T04:14:37.666Z,3.33
2022-08-29T04:17:45.603Z,3.33
2022-08-29T04:21:02.045Z,3.78
2022-08-29T04:24:04.293Z,3.92
2022-08-29T04:27:06.473Z,4.22
2022-08-29T04:30:15.219Z,3.55
2022-08-29T04:33:22.316Z,3.87
2022-08-29T04:36:26.097Z,3.83
2022-08-29T04:39:28.457Z,4.18
2022-08-29T04:42:31.269Z,3.97
2022-08-29T04:45:33.664Z,4.00
2022-08-29T04:48:35.855Z,3.78
2022-08-29T04:51:38.151Z,3.92
2022-08-29T04:54:40.418Z,4.20
2022-08-29T04:57:42.814Z,3.95
2022-08-29T05:00:45.768Z,3.80
2022-08-29T05:03:49.057Z,3.50
2022-08-29T05:06:51.278Z,3.60
2022-08-29T05:10:17.399Z,3.50
2022-08-29T05:13:19.677Z,4.20
2022-08-29T05:16:21.917Z,3.50
2022-08-29T05:19:24.158Z,3.45
2022-08-29T05:22:26.923Z,3.97
2022-08-29T05:25:29.186Z,4.03
2022-08-29T05:28:34.034Z,4.00
2022-08-29T05:31:38.096Z,3.78
2022-08-29T05:34:41.844Z,4.47
2022-08-29T05:37:44.105Z,3.60
2022-08-29T05:40:46.432Z,3.60
2022-08-29T05:43:48.643Z,3.85
2022-08-29T05:46:50.917Z,4.03
2022-08-29T05:49:53.151Z,4.10
2022-08-29T05:52:55.340Z,4.35
2022-08-29T05:55:57.654Z,3.90
2022-08-29T05:58:59.964Z,3.35
2022-08-29T06:02:02.575Z,3.62
2022-08-29T06:05:05.008Z,3.87
2022-08-29T06:08:08.213Z,4.07
2022-08-29T06:11:24.807Z,3.40
2022-08-29T06:14:27.231Z,4.00
2022-08-29T06:17:29.754Z,3.40
2022-08-29T06:20:32.021Z,3.10
2022-08-29T06:23:35.136Z,3.30
2022-08-29T06:26:37.557Z,3.25
2022-08-29T06:29:43.724Z,3.40
2022-08-29T06:32:46.166Z,3.10
2022-08-29T06:35:48.413Z,3.10
2022-08-29T06:38:50.604Z,3.30
2022-08-29T06:41:52.845Z,3.67
2022-08-29T06:44:55.103Z,3.30
2022-08-29T06:47:57.391Z,3.28
2022-08-29T06:51:02.903Z,3.50
2022-08-29T06:54:07.216Z,3.17
2022-08-29T06:57:09.560Z,3.10
2022-08-29T07:00:22.078Z,3.17
2022-08-29T07:03:25.485Z,2.90
2022-08-29T07:06:28.454Z,3.08
2022-08-29T07:09:32.347Z,3.10
2022-08-29T07:12:34.923Z,3.58
2022-08-29T07:15:37.246Z,2.65
2022-08-29T07:18:39.507Z,3.05
2022-08-29T07:21:41.848Z,2.60
2022-08-29T07:24:44.230Z,3.35
2022-08-29T07:27:48.253Z,2.87
2022-08-29T07:30:55.604Z,2.87
2022-08-29T07:34:02.731Z,3.33
2022-08-29T07:37:06.187Z,2.60
2022-08-29T07:40:19.312Z,2.85
2022-08-29T07:43:24.988Z,3.28
2022-08-29T07:46:29.689Z,2.60
2022-08-29T07:49:41.003Z,2.72
2022-08-29T07:52:43.952Z,2.72
2022-08-29T07:55:46.557Z,2.33
2022-08-29T07:58:48.972Z,2.83
2022-08-29T08:01:51.249Z,2.90
2022-08-29T08:04:53.441Z,2.60
2022-08-29T08:07:56.304Z,2.72
2022-08-29T08:10:58.586Z,2.50
2022-08-29T08:14:01.054Z,2.62
2022-08-29T08:17:03.816Z,2.60
2022-08-29T08:20:09.598Z,2.67
2022-08-29T08:23:14.837Z,2.47
2022-08-29T08:26:17.432Z,2.40
2022-08-29T08:29:19.702Z,2.80
2022-08-29T08:32:22.003Z,3.37
2022-08-29T08:35:24.549Z,3.15
2022-08-29T08:38:27.313Z,2.83
2022-08-29T08:41:42.146Z,2.40
2022-08-29T08:45:06.493Z,3.12
2022-08-29T08:48:14.381Z,2.97
2022-08-29T08:51:22.938Z,3.47
2022-08-29T08:54:27.802Z,2.75
2022-08-29T08:57:37.717Z,2.60
2022-08-29T09:00:53.125Z,2.40
2022-08-29T09:04:27.210Z,2.60
2022-08-29T09:07:48.153Z,3.12
2022-08-29T09:14:03.775Z,2.70
2022-08-29T09:17:08.483Z,2.50
2022-08-29T09:20:15.321Z,2.47
2022-08-29T09:23:28.403Z,2.75
2022-08-29T09:26:30.831Z,2.47
2022-08-29T09:29:33.037Z,2.35
2022-08-29T09:33:11.502Z,2.53
2022-08-29T09:36:15.903Z,3.10
2022-08-29T09:39:24.990Z,2.60
2022-08-29T09:42:36.178Z,2.55
2022-08-29T09:45:38.455Z,2.67
2022-08-29T09:48:49.486Z,2.65
2022-08-29T09:51:51.679Z,2.67
2022-08-29T09:54:53.978Z,2.55
2022-08-29T09:58:06.704Z,2.80
2022-08-29T10:01:17.953Z,2.55
2022-08-29T10:04:37.366Z,2.40
2022-08-29T10:07:52.311Z,2.70
2022-08-29T10:10:58.139Z,2.72
2022-08-29T10:14:31.183Z,2.42
2022-08-29T10:18:05.421Z,2.70
2022-08-29T10:21:21.449Z,2.37
2022-08-29T10:24:49.107Z,2.78
2022-08-29T10:28:14.833Z,2.47
2022-08-29T10:31:27.784Z,3.00
2022-08-29T10:34:44.648Z,2.53
2022-08-29T10:37:57.590Z,2.58
2022-08-29T10:41:36.858Z,2.67
2022-08-29T10:45:06.769Z,2.92
2022-08-29T10:48:21.967Z,2.55
2022-08-29T10:52:03.614Z,2.67
2022-08-29T10:55:20.945Z,2.25
2022-08-29T10:58:44.588Z,2.58
2022-08-29T11:02:19.948Z,2.12
2022-08-29T11:05:26.399Z,2.47
2022-08-29T11:08:34.481Z,2.60
2022-08-29T11:11:38.218Z,2.40
2022-08-29T11:14:44.469Z,3.05
2022-08-29T11:17:52.342Z,2.50
2022-08-29T11:21:02.162Z,2.85
2022-08-29T11:24:05.569Z,2.47
2022-08-29T11:27:10.261Z,2.47
2022-08-29T11:30:40.335Z,2.10
2022-08-29T11:37:07.267Z,2.00
2022-08-29T11:40:15.421Z,2.50
2022-08-29T11:43:20.958Z,2.30
2022-08-29T11:46:42.696Z,1.92
2022-08-29T11:49:51.501Z,1.90
2022-08-29T11:53:33.851Z,2.85
2022-08-29T11:56:36.278Z,2.30
2022-08-29T11:59:54.629Z,2.28
2022-08-29T12:02:57.057Z,2.28
2022-08-29T12:06:03.252Z,2.20
2022-08-29T12:09:19.414Z,2.30
2022-08-29T12:12:47.461Z,2.58
2022-08-29T12:15:53.498Z,1.92
2022-08-29T12:18:57.536Z,2.10
2022-08-29T12:22:01.096Z,2.08
2022-08-29T12:25:27.985Z,2.00
2022-08-29T12:28:37.081Z,1.65
2022-08-29T12:31:44.376Z,2.00
2022-08-29T12:35:26.222Z,1.90
2022-08-29T12:38:53.981Z,1.90
2022-08-29T12:42:02.053Z,1.50
2022-08-29T12:45:13.475Z,1.70
2022-08-29T12:48:25.098Z,1.55
2022-08-29T12:51:56.278Z,1.52
2022-08-29T12:55:03.133Z,1.90
2022-08-29T12:58:06.969Z,1.70
2022-08-29T13:01:31.959Z,1.60
2022-08-29T13:04:36.444Z,1.25
2022-08-29T13:07:38.629Z,1.23
2022-08-29T13:10:52.502Z,1.52
2022-08-29T13:14:23.804Z,1.48
2022-08-29T13:17:38.121Z,1.50
2022-08-29T13:20:40.394Z,1.45
2022-08-29T13:23:47.228Z,1.80
2022-08-29T13:27:04.969Z,1.92
2022-08-29T13:30:08.838Z,1.20
2022-08-29T13:33:27.131Z,1.35
2022-08-29T13:36:59.911Z,1.35
2022-08-29T13:40:33.154Z,1.80
2022-08-29T13:43:46.096Z,1.40
2022-08-29T13:46:51.289Z,1.52
2022-08-29T13:50:01.261Z,1.35
2022-08-29T13:53:03.509Z,1.83
2022-08-29T13:56:19.990Z,1.60
2022-08-29T13:59:28.005Z,1.73
2022-08-29T14:02:30.468Z,1.55
2022-08-29T14:05:33.080Z,1.70
2022-08-29T14:08:35.383Z,1.30
2022-08-29T14:11:37.561Z,1.30
2022-08-29T14:14:40.457Z,1.17
2022-08-29T14:17:42.918Z,1.40
2022-08-29T14:20:45.173Z,1.50
2022-08-29T14:23:48.565Z,1.50
2022-08-29T14:26:57.555Z,1.35
2022-08-29T14:30:06.778Z,1.80
2022-08-29T14:33:09.183Z,2.00
2022-08-29T14:36:11.406Z,1.42
2022-08-29T14:39:14.158Z,2.05
2022-08-29T14:42:16.499Z,1.60
2022-08-29T14:45:18.787Z,1.50
2022-08-29T14:48:21.046Z,1.85
2022-08-29T14:51:23.330Z,1.65
2022-08-29T14:54:25.499Z,1.67
2022-08-29T14:57:27.953Z,1.70
2022-08-29T15:00:31.852Z,2.10
2022-08-29T15:03:34.039Z,1.90
2022-08-29T15:06:37.102Z,1.40
2022-08-29T15:09:40.280Z,1.50
2022-08-29T15:12:42.801Z,1.58
2022-08-29T15:15:45.251Z,1.75
2022-08-29T15:22:10.509Z,1.83
2022-08-29T15:25:12.778Z,2.08
2022-08-29T15:28:15.082Z,1.58
2022-08-29T15:31:17.518Z,1.70
2022-08-29T15:34:19.788Z,1.77
2022-08-29T15:37:22.228Z,1.67
2022-08-29T15:40:24.698Z,1.52
2022-08-29T15:43:27.890Z,1.90
2022-08-29T15:46:30.832Z,2.12
2022-08-29T15:49:33.165Z,1.90
2022-08-29T15:52:36.568Z,2.15
2022-08-29T15:55:42.510Z,2.20
2022-08-29T15:58:48.302Z,2.20
2022-08-29T16:01:53.609Z,2.50
2022-08-29T16:04:57.287Z,2.20
2022-08-29T16:08:00.223Z,2.67
2022-08-29T16:11:04.443Z,2.65
2022-08-29T16:14:41.165Z,2.12
2022-08-29T16:17:31.552Z,1.75
2022-08-29T16:20:34.620Z,2.20
2022-08-29T16:23:36.897Z,1.90
2022-08-29T16:26:43.728Z,2.40
2022-08-29T16:29:47.758Z,1.92
2022-08-29T16:32:50.501Z,2.28
2022-08-29T16:35:52.704Z,2.42
2022-08-29T16:38:55.698Z,2.30
2022-08-29T16:41:58.000Z,2.53
2022-08-29T16:45:00.303Z,2.20
2022-08-29T16:48:02.906Z,2.45
2022-08-29T16:51:07.979Z,1.90
2022-08-29T16:54:12.451Z,2.30
2022-08-29T16:57:14.672Z,1.98
2022-08-29T17:00:16.951Z,2.65
2022-08-29T17:03:20.337Z,2.08
2022-08-29T17:06:23.364Z,2.20
2022-08-29T17:09:25.814Z,2.20
2022-08-29T17:12:29.254Z,2.28
2022-08-29T17:15:31.454Z,2.22
2022-08-29T17:18:34.290Z,2.10
2022-08-29T17:21:36.678Z,2.40
2022-08-29T17:24:38.917Z,2.53
2022-08-29T17:27:42.914Z,2.37
2022-08-29T17:30:55.081Z,2.40
2022-08-29T17:33:57.429Z,2.55
2022-08-29T17:37:00.452Z,2.12
2022-08-29T17:40:04.212Z,2.15
2022-08-29T17:43:06.963Z,2.28
2022-08-29T17:46:09.916Z,3.25
2022-08-29T17:49:12.427Z,2.40
2022-08-29T17:52:14.628Z,2.70
2022-08-29T17:55:17.113Z,2.37
2022-08-29T17:58:21.183Z,2.10
2022-08-29T18:01:23.747Z,2.53
2022-08-29T18:04:26.925Z,2.72
2022-08-29T18:07:29.795Z,2.50
2022-08-29T18:10:33.649Z,2.25
2022-08-29T18:13:35.840Z,2.45
2022-08-29T18:16:38.206Z,2.70
2022-08-29T18:19:41.109Z,2.47
2022-08-29T18:22:43.379Z,3.67
2022-08-29T18:25:45.646Z,2.60
2022-08-29T18:28:48.159Z,3.92
2022-08-29T18:31:51.955Z,2.72
2022-08-29T18:34:58.799Z,2.05
2022-08-29T18:38:02.917Z,2.35
2022-08-29T18:41:06.488Z,2.00
2022-08-29T18:44:10.128Z,2.20
2022-08-29T18:47:12.376Z,2.60
2022-08-29T18:50:33.209Z,2.10
2022-08-29T18:53:35.477Z,2.28
2022-08-29T18:56:38.318Z,2.15
2022-08-29T18:59:40.994Z,2.33
2022-08-29T19:02:43.539Z,2.15
2022-08-29T19:05:49.524Z,2.50
2022-08-29T19:08:52.764Z,2.58
2022-08-29T19:11:55.925Z,2.03
2022-08-29T19:14:58.160Z,2.05
2022-08-29T19:18:00.607Z,4.22
2022-08-29T19:21:02.970Z,2.08
2022-08-29T19:24:05.299Z,2.28
2022-08-29T19:27:21.718Z,2.00
2022-08-29T19:30:29.820Z,2.47
2022-08-29T19:33:34.420Z,2.20
2022-08-29T19:36:36.919Z,2.10
2022-08-29T19:39:39.158Z,2.62
2022-08-29T19:42:42.212Z,2.08
2022-08-29T19:45:44.644Z,2.70
2022-08-29T19:48:51.608Z,2.22
2022-08-29T19:51:54.829Z,2.70
2022-08-29T19:55:00.246Z,2.40
2022-08-29T19:58:02.536Z,2.50
2022-08-29T20:01:08.824Z,2.37
2022-08-29T20:04:11.724Z,2.87
2022-08-29T20:07:14.687Z,2.58
2022-08-29T20:10:23.326Z,2.70
2022-08-29T20:13:28.186Z,2.42
2022-08-29T20:16:36.100Z,2.50
2022-08-29T20:19:39.517Z,2.10
2022-08-29T20:22:41.763Z,2.50
2022-08-29T20:25:45.920Z,2.40
2022-08-29T20:28:49.259Z,2.95
2022-08-29T20:31:51.490Z,2.70
2022-08-29T20:34:53.784Z,2.70
2022-08-29T20:37:56.014Z,2.55
2022-08-29T20:40:58.247Z,2.35
2022-08-29T20:44:06.889Z,2.60
2022-08-29T20:47:20.396Z,2.40
2022-08-29T20:50:22.715Z,2.40
2022-08-29T20:53:32.554Z,2.50
2022-08-29T20:56:35.192Z,2.80
2022-08-29T20:59:39.499Z,3.03
2022-08-29T21:03:00.262Z,2.20
2022-08-29T21:06:03.709Z,3.35
2022-08-29T21:09:06.272Z,2.90
2022-08-29T21:12:08.730Z,2.40
2022-08-29T21:15:11.794Z,2.70
2022-08-29T21:18:16.103Z,2.95
2022-08-29T21:21:24.836Z,2.60
2022-08-29T21:24:29.505Z,2.85
2022-08-29T21:27:31.844Z,2.50
2022-08-29T21:30:35.677Z,2.60
2022-08-29T21:33:39.608Z,3.42
2022-08-29T21:36:41.838Z,2.83
2022-08-29T21:39:46.568Z,3.00
2022-08-29T21:42:48.917Z,3.05
2022-08-29T21:45:51.951Z,2.83
2022-08-29T21:48:57.032Z,2.90
2022-08-29T21:51:59.843Z,2.92
2022-08-29T21:55:02.104Z,2.35
2022-08-29T21:58:04.433Z,2.70
2022-08-29T22:01:09.334Z,2.40
2022-08-29T22:04:19.220Z,2.53
2022-08-29T22:07:31.296Z,2.80
2022-08-29T22:10:35.838Z,2.70
2022-08-29T22:13:38.155Z,3.42
2022-08-29T22:16:41.025Z,2.80
2022-08-29T22:19:43.386Z,3.00
2022-08-29T22:22:46.334Z,2.87
2022-08-29T22:25:48.530Z,3.22
2022-08-29T22:28:50.855Z,3.00
2022-08-29T22:31:55.246Z,3.22
2022-08-29T22:34:57.422Z,3.75
2022-08-29T22:37:59.616Z,3.20
2022-08-29T22:41:01.896Z,3.65
2022-08-29T22:47:27.402Z,3.40
2022-08-29T22:50:29.621Z,3.05
2022-08-29T22:53:31.857Z,3.50
2022-08-29T22:56:36.328Z,2.90
2022-08-29T22:59:38.941Z,2.90
2022-08-29T23:02:41.572Z,3.00
2022-08-29T23:05:43.832Z,3.40
2022-08-29T23:08:46.065Z,3.35
2022-08-29T23:11:48.535Z,3.15
2022-08-29T23:14:51.397Z,3.50
2022-08-29T23:17:53.662Z,2.97
2022-08-29T23:20:55.866Z,2.83
2022-08-29T23:23:58.821Z,2.92
2022-08-29T23:27:01.112Z,2.80
2022-08-29T23:30:05.612Z,2.95
2022-08-29T23:33:11.336Z,3.40
2022-08-29T23:36:13.536Z,2.80
2022-08-29T23:39:15.724Z,2.83
2022-08-29T23:42:18.135Z,2.95
2022-08-29T23:45:20.482Z,3.37
2022-08-29T23:48:25.963Z,2.92
2022-08-29T23:51:28.287Z,3.10
2022-08-29T23:54:31.550Z,3.20
2022-08-29T23:57:34.855Z,3.65
